Alvarado, Minnesota
Current Conditions -  °F | °C
As of 8:53 AM on Wednesday 26 Nov 2014 (Local Time) from KGFK Reporting Station
Overcast Overcast  
Wind Chill: -21°   Ceiling: 6500
Heat Index: -1°   Visibility: 10mi
Dew Point: -7°   Wind: 16mph
Humidity: 75%   Direction: 360°N
Pressure: 30.42"   Gusts: NA
Location:  48.19°N, 97°W
Report Text: KGFK 261453Z 36014KT 10SM BKN065 OVC100 M18/M22 A3042 RMK AO2 SLP324 T11831217 51026
Loading
Personal Weather Stations






























Interactive Weather Map New forecast layout! Learn more

10-Day Weather Forecast

Advertisements
Track Severe Weather on mobile